sensor_id;sensor_type;location;lat;lon;timestamp;P1;durP1;ratioP1;P2;durP2;ratioP2
39750;SDS011;37579;51.074;17.004;2024-03-08T00:01:30;5.82;;;3.35;;
39750;SDS011;37579;51.074;17.004;2024-03-08T00:03:56;5.72;;;3.40;;
39750;SDS011;37579;51.074;17.004;2024-03-08T00:06:22;5.63;;;3.47;;
39750;SDS011;37579;51.074;17.004;2024-03-08T00:08:47;5.47;;;3.60;;
39750;SDS011;37579;51.074;17.004;2024-03-08T00:11:13;5.78;;;3.63;;
39750;SDS011;37579;51.074;17.004;2024-03-08T00:13:39;5.57;;;3.53;;
39750;SDS011;37579;51.074;17.004;2024-03-08T00:16:05;6.20;;;4.00;;
39750;SDS011;37579;51.074;17.004;2024-03-08T00:18:30;8.38;;;4.85;;
39750;SDS011;37579;51.074;17.004;2024-03-08T00:20:56;5.03;;;3.60;;
39750;SDS011;37579;51.074;17.004;2024-03-08T00:23:22;4.88;;;3.67;;
39750;SDS011;37579;51.074;17.004;2024-03-08T00:25:48;6.30;;;3.97;;
39750;SDS011;37579;51.074;17.004;2024-03-08T00:28:14;7.05;;;3.67;;
39750;SDS011;37579;51.074;17.004;2024-03-08T00:30:42;6.65;;;3.50;;
39750;SDS011;37579;51.074;17.004;2024-03-08T00:33:08;6.15;;;3.38;;
39750;SDS011;37579;51.074;17.004;2024-03-08T00:35:33;5.80;;;3.53;;
39750;SDS011;37579;51.074;17.004;2024-03-08T00:37:59;5.50;;;3.80;;
39750;SDS011;37579;51.074;17.004;2024-03-08T00:40:25;6.53;;;3.72;;
39750;SDS011;37579;51.074;17.004;2024-03-08T00:42:51;6.72;;;3.75;;
39750;SDS011;37579;51.074;17.004;2024-03-08T00:45:18;5.90;;;3.60;;
39750;SDS011;37579;51.074;17.004;2024-03-08T00:47:44;5.90;;;4.10;;
39750;SDS011;37579;51.074;17.004;2024-03-08T00:50:10;7.00;;;3.42;;
39750;SDS011;37579;51.074;17.004;2024-03-08T00:52:36;6.03;;;3.70;;
39750;SDS011;37579;51.074;17.004;2024-03-08T00:55:02;5.22;;;3.30;;
39750;SDS011;37579;51.074;17.004;2024-03-08T00:57:28;5.70;;;3.53;;
39750;SDS011;37579;51.074;17.004;2024-03-08T00:59:55;5.78;;;3.70;;
39750;SDS011;37579;51.074;17.004;2024-03-08T01:02:21;5.28;;;3.47;;
39750;SDS011;37579;51.074;17.004;2024-03-08T01:04:48;5.45;;;3.38;;
39750;SDS011;37579;51.074;17.004;2024-03-08T01:07:14;6.05;;;3.65;;
39750;SDS011;37579;51.074;17.004;2024-03-08T01:09:40;6.00;;;3.10;;
39750;SDS011;37579;51.074;17.004;2024-03-08T01:12:06;4.80;;;3.42;;
39750;SDS011;37579;51.074;17.004;2024-03-08T01:14:32;5.72;;;3.50;;
39750;SDS011;37579;51.074;17.004;2024-03-08T01:16:58;6.25;;;3.70;;
39750;SDS011;37579;51.074;17.004;2024-03-08T01:19:24;5.05;;;3.80;;
39750;SDS011;37579;51.074;17.004;2024-03-08T01:21:50;4.82;;;3.28;;
39750;SDS011;37579;51.074;17.004;2024-03-08T01:24:16;6.20;;;3.85;;
39750;SDS011;37579;51.074;17.004;2024-03-08T01:26:42;6.40;;;3.58;;
39750;SDS011;37579;51.074;17.004;2024-03-08T01:29:08;6.05;;;3.92;;
39750;SDS011;37579;51.074;17.004;2024-03-08T01:31:34;5.45;;;3.40;;
39750;SDS011;37579;51.074;17.004;2024-03-08T01:34:01;4.85;;;3.40;;
39750;SDS011;37579;51.074;17.004;2024-03-08T01:36:27;6.18;;;3.85;;
39750;SDS011;37579;51.074;17.004;2024-03-08T01:38:53;5.05;;;3.53;;
39750;SDS011;37579;51.074;17.004;2024-03-08T01:41:18;5.20;;;3.75;;
39750;SDS011;37579;51.074;17.004;2024-03-08T01:43:45;4.60;;;3.40;;
39750;SDS011;37579;51.074;17.004;2024-03-08T01:46:11;5.40;;;3.50;;
39750;SDS011;37579;51.074;17.004;2024-03-08T01:48:41;4.55;;;3.63;;
39750;SDS011;37579;51.074;17.004;2024-03-08T01:51:07;6.00;;;3.78;;
39750;SDS011;37579;51.074;17.004;2024-03-08T01:53:34;7.43;;;3.72;;
39750;SDS011;37579;51.074;17.004;2024-03-08T01:56:01;5.35;;;3.80;;
39750;SDS011;37579;51.074;17.004;2024-03-08T01:58:28;6.72;;;3.83;;
39750;SDS011;37579;51.074;17.004;2024-03-08T02:00:56;5.00;;;3.45;;
39750;SDS011;37579;51.074;17.004;2024-03-08T02:03:23;5.70;;;3.90;;
39750;SDS011;37579;51.074;17.004;2024-03-08T02:05:49;4.63;;;3.53;;
39750;SDS011;37579;51.074;17.004;2024-03-08T02:08:16;6.63;;;4.18;;
39750;SDS011;37579;51.074;17.004;2024-03-08T02:10:45;6.28;;;3.53;;
39750;SDS011;37579;51.074;17.004;2024-03-08T02:13:11;6.28;;;3.70;;
39750;SDS011;37579;51.074;17.004;2024-03-08T02:15:53;5.78;;;3.50;;
39750;SDS011;37579;51.074;17.004;2024-03-08T02:18:20;5.25;;;3.53;;
39750;SDS011;37579;51.074;17.004;2024-03-08T02:20:47;5.43;;;3.20;;
39750;SDS011;37579;51.074;17.004;2024-03-08T02:23:14;5.95;;;3.72;;
39750;SDS011;37579;51.074;17.004;2024-03-08T02:25:40;5.57;;;3.88;;
39750;SDS011;37579;51.074;17.004;2024-03-08T02:28:09;6.38;;;4.28;;
39750;SDS011;37579;51.074;17.004;2024-03-08T02:30:36;6.70;;;3.67;;
39750;SDS011;37579;51.074;17.004;2024-03-08T02:33:02;5.20;;;3.25;;
39750;SDS011;37579;51.074;17.004;2024-03-08T02:35:27;4.15;;;3.42;;
39750;SDS011;37579;51.074;17.004;2024-03-08T02:37:53;4.85;;;3.35;;
39750;SDS011;37579;51.074;17.004;2024-03-08T02:40:19;5.55;;;3.80;;
39750;SDS011;37579;51.074;17.004;2024-03-08T02:42:44;5.18;;;3.60;;
39750;SDS011;37579;51.074;17.004;2024-03-08T02:45:10;5.63;;;3.75;;
39750;SDS011;37579;51.074;17.004;2024-03-08T02:47:36;6.32;;;4.03;;
39750;SDS011;37579;51.074;17.004;2024-03-08T02:50:02;5.85;;;3.92;;
39750;SDS011;37579;51.074;17.004;2024-03-08T02:52:28;4.65;;;3.67;;
39750;SDS011;37579;51.074;17.004;2024-03-08T02:54:54;5.25;;;3.90;;
39750;SDS011;37579;51.074;17.004;2024-03-08T02:57:21;4.45;;;3.38;;
39750;SDS011;37579;51.074;17.004;2024-03-08T02:59:47;4.72;;;3.70;;
39750;SDS011;37579;51.074;17.004;2024-03-08T03:02:13;5.90;;;3.70;;
39750;SDS011;37579;51.074;17.004;2024-03-08T03:04:41;5.63;;;4.20;;
39750;SDS011;37579;51.074;17.004;2024-03-08T03:07:08;5.00;;;3.58;;
39750;SDS011;37579;51.074;17.004;2024-03-08T03:09:33;5.68;;;3.55;;
39750;SDS011;37579;51.074;17.004;2024-03-08T03:12:00;6.35;;;4.20;;
39750;SDS011;37579;51.074;17.004;2024-03-08T03:14:26;7.00;;;3.70;;
39750;SDS011;37579;51.074;17.004;2024-03-08T03:16:54;5.28;;;4.03;;
39750;SDS011;37579;51.074;17.004;2024-03-08T03:19:20;5.35;;;4.38;;
39750;SDS011;37579;51.074;17.004;2024-03-08T03:21:46;5.85;;;4.20;;
39750;SDS011;37579;51.074;17.004;2024-03-08T03:24:12;4.82;;;3.90;;
39750;SDS011;37579;51.074;17.004;2024-03-08T03:26:41;5.22;;;3.63;;
39750;SDS011;37579;51.074;17.004;2024-03-08T03:29:08;4.97;;;3.67;;
39750;SDS011;37579;51.074;17.004;2024-03-08T03:31:36;5.50;;;4.18;;
39750;SDS011;37579;51.074;17.004;2024-03-08T03:34:01;4.50;;;3.63;;
39750;SDS011;37579;51.074;17.004;2024-03-08T03:36:31;5.97;;;3.90;;
39750;SDS011;37579;51.074;17.004;2024-03-08T03:38:58;5.10;;;3.75;;
39750;SDS011;37579;51.074;17.004;2024-03-08T03:41:35;6.22;;;4.22;;
39750;SDS011;37579;51.074;17.004;2024-03-08T03:44:01;5.15;;;3.92;;
39750;SDS011;37579;51.074;17.004;2024-03-08T03:46:27;4.13;;;3.38;;
39750;SDS011;37579;51.074;17.004;2024-03-08T03:48:56;4.30;;;3.55;;
39750;SDS011;37579;51.074;17.004;2024-03-08T03:51:21;5.68;;;3.58;;
39750;SDS011;37579;51.074;17.004;2024-03-08T03:53:47;6.15;;;4.13;;
39750;SDS011;37579;51.074;17.004;2024-03-08T03:56:13;5.75;;;3.95;;
39750;SDS011;37579;51.074;17.004;2024-03-08T03:58:39;4.95;;;3.75;;
39750;SDS011;37579;51.074;17.004;2024-03-08T04:01:05;4.28;;;3.53;;
39750;SDS011;37579;51.074;17.004;2024-03-08T04:03:31;5.18;;;3.80;;
39750;SDS011;37579;51.074;17.004;2024-03-08T04:05:57;5.72;;;3.70;;
39750;SDS011;37579;51.074;17.004;2024-03-08T04:08:23;5.18;;;3.83;;
39750;SDS011;37579;51.074;17.004;2024-03-08T04:10:51;5.45;;;4.20;;
39750;SDS011;37579;51.074;17.004;2024-03-08T04:13:17;5.03;;;3.80;;
39750;SDS011;37579;51.074;17.004;2024-03-08T04:15:44;6.05;;;4.20;;
39750;SDS011;37579;51.074;17.004;2024-03-08T04:18:12;5.03;;;4.00;;
39750;SDS011;37579;51.074;17.004;2024-03-08T04:20:37;4.70;;;3.53;;
39750;SDS011;37579;51.074;17.004;2024-03-08T04:23:05;4.50;;;3.53;;
39750;SDS011;37579;51.074;17.004;2024-03-08T04:25:31;4.93;;;3.55;;
39750;SDS011;37579;51.074;17.004;2024-03-08T04:27:57;5.63;;;4.03;;
39750;SDS011;37579;51.074;17.004;2024-03-08T04:30:23;4.78;;;3.67;;
39750;SDS011;37579;51.074;17.004;2024-03-08T04:32:49;5.88;;;4.00;;
39750;SDS011;37579;51.074;17.004;2024-03-08T04:35:15;5.35;;;3.78;;
39750;SDS011;37579;51.074;17.004;2024-03-08T04:37:41;4.88;;;3.63;;
39750;SDS011;37579;51.074;17.004;2024-03-08T04:40:07;5.10;;;3.80;;
39750;SDS011;37579;51.074;17.004;2024-03-08T04:42:33;4.95;;;3.90;;
39750;SDS011;37579;51.074;17.004;2024-03-08T04:45:00;5.70;;;4.00;;
39750;SDS011;37579;51.074;17.004;2024-03-08T04:47:25;6.00;;;3.88;;
39750;SDS011;37579;51.074;17.004;2024-03-08T04:49:51;5.47;;;3.97;;
39750;SDS011;37579;51.074;17.004;2024-03-08T04:52:17;5.20;;;3.78;;
39750;SDS011;37579;51.074;17.004;2024-03-08T04:54:43;6.43;;;4.28;;
39750;SDS011;37579;51.074;17.004;2024-03-08T04:57:10;5.30;;;4.28;;
39750;SDS011;37579;51.074;17.004;2024-03-08T04:59:36;5.63;;;3.67;;
39750;SDS011;37579;51.074;17.004;2024-03-08T05:02:02;5.53;;;4.50;;
39750;SDS011;37579;51.074;17.004;2024-03-08T05:04:28;5.65;;;4.18;;
39750;SDS011;37579;51.074;17.004;2024-03-08T05:06:54;5.10;;;3.97;;
39750;SDS011;37579;51.074;17.004;2024-03-08T05:09:20;5.68;;;3.85;;
39750;SDS011;37579;51.074;17.004;2024-03-08T05:11:46;6.90;;;4.38;;
39750;SDS011;37579;51.074;17.004;2024-03-08T05:14:13;6.90;;;3.85;;
39750;SDS011;37579;51.074;17.004;2024-03-08T05:16:45;5.35;;;4.05;;
39750;SDS011;37579;51.074;17.004;2024-03-08T05:19:14;6.07;;;4.05;;
39750;SDS011;37579;51.074;17.004;2024-03-08T05:21:47;5.75;;;4.20;;
39750;SDS011;37579;51.074;17.004;2024-03-08T05:24:13;5.63;;;4.05;;
39750;SDS011;37579;51.074;17.004;2024-03-08T05:26:40;6.47;;;3.95;;
39750;SDS011;37579;51.074;17.004;2024-03-08T05:29:07;6.68;;;4.25;;
39750;SDS011;37579;51.074;17.004;2024-03-08T05:31:38;8.80;;;4.45;;
39750;SDS011;37579;51.074;17.004;2024-03-08T05:34:12;4.75;;;3.90;;
39750;SDS011;37579;51.074;17.004;2024-03-08T05:36:40;5.55;;;4.13;;
39750;SDS011;37579;51.074;17.004;2024-03-08T05:39:06;5.88;;;4.35;;
39750;SDS011;37579;51.074;17.004;2024-03-08T05:41:32;6.85;;;4.22;;
39750;SDS011;37579;51.074;17.004;2024-03-08T05:43:58;4.90;;;4.07;;
39750;SDS011;37579;51.074;17.004;2024-03-08T05:46:23;5.47;;;4.38;;
39750;SDS011;37579;51.074;17.004;2024-03-08T05:48:49;5.88;;;4.10;;
39750;SDS011;37579;51.074;17.004;2024-03-08T05:51:15;5.65;;;4.05;;
39750;SDS011;37579;51.074;17.004;2024-03-08T05:53:41;6.78;;;4.28;;
39750;SDS011;37579;51.074;17.004;2024-03-08T05:56:06;6.13;;;4.50;;
39750;SDS011;37579;51.074;17.004;2024-03-08T05:58:34;5.70;;;4.45;;
39750;SDS011;37579;51.074;17.004;2024-03-08T06:01:00;5.15;;;3.90;;
39750;SDS011;37579;51.074;17.004;2024-03-08T06:03:26;7.85;;;4.22;;
39750;SDS011;37579;51.074;17.004;2024-03-08T06:05:51;5.25;;;3.88;;
39750;SDS011;37579;51.074;17.004;2024-03-08T06:08:17;6.22;;;4.43;;
39750;SDS011;37579;51.074;17.004;2024-03-08T06:10:44;6.25;;;4.40;;
39750;SDS011;37579;51.074;17.004;2024-03-08T06:13:10;10.18;;;6.70;;
39750;SDS011;37579;51.074;17.004;2024-03-08T06:15:37;7.80;;;5.15;;
39750;SDS011;37579;51.074;17.004;2024-03-08T06:18:03;7.28;;;4.90;;
39750;SDS011;37579;51.074;17.004;2024-03-08T06:20:31;12.82;;;5.10;;
39750;SDS011;37579;51.074;17.004;2024-03-08T06:22:56;8.27;;;5.18;;
39750;SDS011;37579;51.074;17.004;2024-03-08T06:25:22;8.13;;;5.35;;
39750;SDS011;37579;51.074;17.004;2024-03-08T06:27:48;9.68;;;4.70;;
39750;SDS011;37579;51.074;17.004;2024-03-08T06:30:13;8.15;;;4.78;;
39750;SDS011;37579;51.074;17.004;2024-03-08T06:32:41;8.02;;;5.20;;
39750;SDS011;37579;51.074;17.004;2024-03-08T06:35:08;8.77;;;4.80;;
39750;SDS011;37579;51.074;17.004;2024-03-08T06:37:35;7.47;;;4.88;;
39750;SDS011;37579;51.074;17.004;2024-03-08T06:40:01;8.52;;;5.13;;
39750;SDS011;37579;51.074;17.004;2024-03-08T06:42:28;8.00;;;4.85;;
39750;SDS011;37579;51.074;17.004;2024-03-08T06:44:54;5.75;;;5.03;;
39750;SDS011;37579;51.074;17.004;2024-03-08T06:47:22;7.22;;;4.80;;
39750;SDS011;37579;51.074;17.004;2024-03-08T06:49:50;8.23;;;4.78;;
39750;SDS011;37579;51.074;17.004;2024-03-08T06:52:17;9.77;;;5.10;;
39750;SDS011;37579;51.074;17.004;2024-03-08T06:54:43;7.22;;;5.10;;
39750;SDS011;37579;51.074;17.004;2024-03-08T06:57:09;7.07;;;4.53;;
39750;SDS011;37579;51.074;17.004;2024-03-08T06:59:35;7.30;;;5.22;;
39750;SDS011;37579;51.074;17.004;2024-03-08T07:02:01;8.00;;;4.35;;
39750;SDS011;37579;51.074;17.004;2024-03-08T07:04:27;5.75;;;4.72;;
39750;SDS011;37579;51.074;17.004;2024-03-08T07:06:58;7.00;;;5.28;;
39750;SDS011;37579;51.074;17.004;2024-03-08T07:09:24;7.80;;;5.43;;
39750;SDS011;37579;51.074;17.004;2024-03-08T07:11:50;8.07;;;5.55;;
39750;SDS011;37579;51.074;17.004;2024-03-08T07:14:22;11.83;;;5.47;;
39750;SDS011;37579;51.074;17.004;2024-03-08T07:16:49;13.00;;;5.03;;
39750;SDS011;37579;51.074;17.004;2024-03-08T07:19:16;8.80;;;5.50;;
39750;SDS011;37579;51.074;17.004;2024-03-08T07:21:45;9.13;;;5.70;;
39750;SDS011;37579;51.074;17.004;2024-03-08T07:24:12;10.60;;;5.57;;
39750;SDS011;37579;51.074;17.004;2024-03-08T07:26:53;10.23;;;5.68;;
39750;SDS011;37579;51.074;17.004;2024-03-08T07:29:21;11.73;;;5.82;;
39750;SDS011;37579;51.074;17.004;2024-03-08T07:31:47;8.75;;;4.78;;
39750;SDS011;37579;51.074;17.004;2024-03-08T07:34:28;7.57;;;4.97;;
39750;SDS011;37579;51.074;17.004;2024-03-08T07:36:57;11.50;;;5.25;;
39750;SDS011;37579;51.074;17.004;2024-03-08T07:39:24;10.23;;;5.68;;
39750;SDS011;37579;51.074;17.004;2024-03-08T07:41:50;8.00;;;5.70;;
39750;SDS011;37579;51.074;17.004;2024-03-08T07:44:18;8.20;;;5.07;;
39750;SDS011;37579;51.074;17.004;2024-03-08T07:46:44;10.63;;;5.25;;
39750;SDS011;37579;51.074;17.004;2024-03-08T07:49:09;9.55;;;5.50;;
39750;SDS011;37579;51.074;17.004;2024-03-08T07:51:37;9.13;;;5.32;;
39750;SDS011;37579;51.074;17.004;2024-03-08T07:54:03;9.70;;;5.25;;
39750;SDS011;37579;51.074;17.004;2024-03-08T07:56:30;8.95;;;5.25;;
39750;SDS011;37579;51.074;17.004;2024-03-08T07:58:56;9.60;;;4.78;;
39750;SDS011;37579;51.074;17.004;2024-03-08T08:01:21;7.10;;;5.13;;
39750;SDS011;37579;51.074;17.004;2024-03-08T08:03:47;8.80;;;5.13;;
39750;SDS011;37579;51.074;17.004;2024-03-08T08:06:15;7.03;;;5.03;;
39750;SDS011;37579;51.074;17.004;2024-03-08T08:08:42;9.23;;;5.47;;
39750;SDS011;37579;51.074;17.004;2024-03-08T08:11:08;11.60;;;5.10;;
39750;SDS011;37579;51.074;17.004;2024-03-08T08:13:34;8.95;;;5.47;;
39750;SDS011;37579;51.074;17.004;2024-03-08T08:16:01;10.10;;;4.63;;
39750;SDS011;37579;51.074;17.004;2024-03-08T08:18:28;6.50;;;5.43;;
39750;SDS011;37579;51.074;17.004;2024-03-08T08:20:55;7.32;;;4.75;;
39750;SDS011;37579;51.074;17.004;2024-03-08T08:23:21;8.25;;;5.15;;
39750;SDS011;37579;51.074;17.004;2024-03-08T08:25:47;7.15;;;4.70;;
39750;SDS011;37579;51.074;17.004;2024-03-08T08:28:16;6.38;;;5.03;;
39750;SDS011;37579;51.074;17.004;2024-03-08T08:30:43;8.60;;;4.68;;
39750;SDS011;37579;51.074;17.004;2024-03-08T08:33:09;10.18;;;5.90;;
39750;SDS011;37579;51.074;17.004;2024-03-08T08:35:36;10.40;;;5.65;;
39750;SDS011;37579;51.074;17.004;2024-03-08T08:38:05;11.57;;;5.63;;
39750;SDS011;37579;51.074;17.004;2024-03-08T08:40:32;10.13;;;6.47;;
39750;SDS011;37579;51.074;17.004;2024-03-08T08:43:02;11.25;;;5.85;;
39750;SDS011;37579;51.074;17.004;2024-03-08T08:45:30;8.57;;;5.45;;
39750;SDS011;37579;51.074;17.004;2024-03-08T08:47:56;8.60;;;5.88;;
39750;SDS011;37579;51.074;17.004;2024-03-08T08:50:24;10.82;;;6.35;;
39750;SDS011;37579;51.074;17.004;2024-03-08T08:52:51;10.45;;;6.03;;
39750;SDS011;37579;51.074;17.004;2024-03-08T08:55:18;9.13;;;5.97;;
39750;SDS011;37579;51.074;17.004;2024-03-08T08:57:46;9.98;;;6.05;;
39750;SDS011;37579;51.074;17.004;2024-03-08T09:00:17;8.90;;;5.78;;
39750;SDS011;37579;51.074;17.004;2024-03-08T09:02:45;11.73;;;6.05;;
39750;SDS011;37579;51.074;17.004;2024-03-08T09:05:12;8.88;;;5.28;;
39750;SDS011;37579;51.074;17.004;2024-03-08T09:07:39;12.35;;;6.18;;
39750;SDS011;37579;51.074;17.004;2024-03-08T09:10:05;11.35;;;5.90;;
39750;SDS011;37579;51.074;17.004;2024-03-08T09:12:32;11.95;;;6.20;;
39750;SDS011;37579;51.074;17.004;2024-03-08T09:14:58;11.13;;;5.68;;
39750;SDS011;37579;51.074;17.004;2024-03-08T09:17:24;11.68;;;6.43;;
39750;SDS011;37579;51.074;17.004;2024-03-08T09:19:50;9.18;;;5.93;;
39750;SDS011;37579;51.074;17.004;2024-03-08T09:22:16;9.43;;;5.55;;
39750;SDS011;37579;51.074;17.004;2024-03-08T09:24:43;11.90;;;5.60;;
39750;SDS011;37579;51.074;17.004;2024-03-08T09:27:09;7.95;;;5.32;;
39750;SDS011;37579;51.074;17.004;2024-03-08T09:29:35;9.10;;;5.75;;
39750;SDS011;37579;51.074;17.004;2024-03-08T09:32:01;7.40;;;5.63;;
39750;SDS011;37579;51.074;17.004;2024-03-08T09:34:27;10.63;;;6.75;;
39750;SDS011;37579;51.074;17.004;2024-03-08T09:36:52;8.98;;;5.85;;
39750;SDS011;37579;51.074;17.004;2024-03-08T09:39:18;9.77;;;6.00;;
39750;SDS011;37579;51.074;17.004;2024-03-08T09:41:46;11.02;;;6.00;;
39750;SDS011;37579;51.074;17.004;2024-03-08T09:44:15;7.65;;;5.18;;
39750;SDS011;37579;51.074;17.004;2024-03-08T09:46:41;8.93;;;5.20;;
39750;SDS011;37579;51.074;17.004;2024-03-08T09:49:08;7.90;;;5.75;;
39750;SDS011;37579;51.074;17.004;2024-03-08T09:51:34;9.25;;;5.75;;
39750;SDS011;37579;51.074;17.004;2024-03-08T09:54:05;9.52;;;5.70;;
39750;SDS011;37579;51.074;17.004;2024-03-08T09:56:37;9.88;;;6.40;;
39750;SDS011;37579;51.074;17.004;2024-03-08T09:59:09;17.35;;;8.90;;
39750;SDS011;37579;51.074;17.004;2024-03-08T10:01:53;13.40;;;8.68;;
39750;SDS011;37579;51.074;17.004;2024-03-08T10:04:24;14.07;;;8.52;;
39750;SDS011;37579;51.074;17.004;2024-03-08T10:06:51;9.35;;;7.03;;
39750;SDS011;37579;51.074;17.004;2024-03-08T10:09:17;11.05;;;7.60;;
39750;SDS011;37579;51.074;17.004;2024-03-08T10:11:43;12.55;;;8.07;;
39750;SDS011;37579;51.074;17.004;2024-03-08T10:14:10;10.73;;;8.18;;
39750;SDS011;37579;51.074;17.004;2024-03-08T10:16:37;11.98;;;7.70;;
39750;SDS011;37579;51.074;17.004;2024-03-08T10:19:04;11.23;;;7.30;;
39750;SDS011;37579;51.074;17.004;2024-03-08T10:21:31;12.70;;;7.93;;
39750;SDS011;37579;51.074;17.004;2024-03-08T10:23:58;13.95;;;7.32;;
39750;SDS011;37579;51.074;17.004;2024-03-08T10:26:24;9.13;;;6.88;;
39750;SDS011;37579;51.074;17.004;2024-03-08T10:28:53;10.65;;;7.82;;
39750;SDS011;37579;51.074;17.004;2024-03-08T10:31:19;9.07;;;6.75;;
39750;SDS011;37579;51.074;17.004;2024-03-08T10:33:48;9.30;;;7.45;;
39750;SDS011;37579;51.074;17.004;2024-03-08T10:36:16;9.65;;;7.78;;
39750;SDS011;37579;51.074;17.004;2024-03-08T10:38:44;8.82;;;7.10;;
39750;SDS011;37579;51.074;17.004;2024-03-08T10:41:12;12.05;;;7.22;;
39750;SDS011;37579;51.074;17.004;2024-03-08T10:46:18;10.00;;;7.00;;
39750;SDS011;37579;51.074;17.004;2024-03-08T10:48:55;9.63;;;6.88;;
39750;SDS011;37579;51.074;17.004;2024-03-08T10:51:28;9.85;;;6.75;;
39750;SDS011;37579;51.074;17.004;2024-03-08T10:53:56;11.98;;;6.85;;
39750;SDS011;37579;51.074;17.004;2024-03-08T10:56:22;9.10;;;6.68;;
39750;SDS011;37579;51.074;17.004;2024-03-08T10:58:48;12.32;;;7.35;;
39750;SDS011;37579;51.074;17.004;2024-03-08T11:01:15;15.48;;;11.25;;
39750;SDS011;37579;51.074;17.004;2024-03-08T11:06:13;14.50;;;9.15;;
39750;SDS011;37579;51.074;17.004;2024-03-08T11:08:47;12.18;;;8.52;;
39750;SDS011;37579;51.074;17.004;2024-03-08T11:11:28;14.02;;;9.02;;
39750;SDS011;37579;51.074;17.004;2024-03-08T11:13:56;12.05;;;8.95;;
39750;SDS011;37579;51.074;17.004;2024-03-08T11:18:59;11.93;;;8.90;;
39750;SDS011;37579;51.074;17.004;2024-03-08T11:21:35;13.88;;;9.27;;
39750;SDS011;37579;51.074;17.004;2024-03-08T11:24:12;11.80;;;8.40;;
39750;SDS011;37579;51.074;17.004;2024-03-08T11:26:39;13.15;;;8.73;;
39750;SDS011;37579;51.074;17.004;2024-03-08T11:29:39;11.10;;;8.23;;
39750;SDS011;37579;51.074;17.004;2024-03-08T11:32:04;10.70;;;7.97;;
39750;SDS011;37579;51.074;17.004;2024-03-08T11:34:34;10.20;;;8.02;;
39750;SDS011;37579;51.074;17.004;2024-03-08T11:37:00;12.10;;;8.55;;
39750;SDS011;37579;51.074;17.004;2024-03-08T11:39:29;11.13;;;8.20;;
39750;SDS011;37579;51.074;17.004;2024-03-08T11:41:56;9.60;;;7.70;;
39750;SDS011;37579;51.074;17.004;2024-03-08T11:44:21;10.27;;;7.55;;
39750;SDS011;37579;51.074;17.004;2024-03-08T11:46:52;10.25;;;8.45;;
39750;SDS011;37579;51.074;17.004;2024-03-08T11:49:19;10.98;;;7.82;;
39750;SDS011;37579;51.074;17.004;2024-03-08T11:51:45;14.30;;;7.82;;
39750;SDS011;37579;51.074;17.004;2024-03-08T11:54:11;11.50;;;8.32;;
39750;SDS011;37579;51.074;17.004;2024-03-08T11:56:40;14.00;;;7.97;;
39750;SDS011;37579;51.074;17.004;2024-03-08T11:59:12;12.60;;;8.32;;
39750;SDS011;37579;51.074;17.004;2024-03-08T12:01:41;11.32;;;7.90;;
39750;SDS011;37579;51.074;17.004;2024-03-08T12:04:06;11.30;;;8.80;;
39750;SDS011;37579;51.074;17.004;2024-03-08T12:06:38;12.43;;;8.57;;
39750;SDS011;37579;51.074;17.004;2024-03-08T12:09:09;12.07;;;8.43;;
39750;SDS011;37579;51.074;17.004;2024-03-08T12:11:38;11.73;;;8.30;;
39750;SDS011;37579;51.074;17.004;2024-03-08T12:14:04;11.48;;;8.02;;
39750;SDS011;37579;51.074;17.004;2024-03-08T12:16:31;12.10;;;7.97;;
39750;SDS011;37579;51.074;17.004;2024-03-08T12:18:57;11.60;;;8.10;;
39750;SDS011;37579;51.074;17.004;2024-03-08T12:21:25;9.70;;;8.35;;
39750;SDS011;37579;51.074;17.004;2024-03-08T12:24:07;12.55;;;8.40;;
39750;SDS011;37579;51.074;17.004;2024-03-08T12:26:38;11.52;;;7.88;;
39750;SDS011;37579;51.074;17.004;2024-03-08T12:34:15;12.52;;;7.68;;
39750;SDS011;37579;51.074;17.004;2024-03-08T12:36:45;9.55;;;7.13;;
39750;SDS011;37579;51.074;17.004;2024-03-08T12:39:13;10.90;;;7.38;;
39750;SDS011;37579;51.074;17.004;2024-03-08T12:41:41;10.15;;;7.07;;
39750;SDS011;37579;51.074;17.004;2024-03-08T12:44:07;10.45;;;7.47;;
39750;SDS011;37579;51.074;17.004;2024-03-08T12:46:36;10.88;;;7.63;;
39750;SDS011;37579;51.074;17.004;2024-03-08T12:49:08;11.32;;;7.63;;
39750;SDS011;37579;51.074;17.004;2024-03-08T12:51:35;11.20;;;8.02;;
39750;SDS011;37579;51.074;17.004;2024-03-08T12:54:02;10.85;;;7.18;;
39750;SDS011;37579;51.074;17.004;2024-03-08T12:56:28;10.40;;;7.55;;
39750;SDS011;37579;51.074;17.004;2024-03-08T12:58:56;8.35;;;7.10;;
39750;SDS011;37579;51.074;17.004;2024-03-08T13:01:21;8.93;;;6.90;;
39750;SDS011;37579;51.074;17.004;2024-03-08T13:03:47;9.40;;;7.07;;
39750;SDS011;37579;51.074;17.004;2024-03-08T13:06:14;10.63;;;6.97;;
39750;SDS011;37579;51.074;17.004;2024-03-08T13:08:41;8.35;;;6.82;;
39750;SDS011;37579;51.074;17.004;2024-03-08T13:11:09;10.50;;;7.70;;
39750;SDS011;37579;51.074;17.004;2024-03-08T13:13:39;10.15;;;6.63;;
39750;SDS011;37579;51.074;17.004;2024-03-08T13:16:06;9.95;;;6.53;;
39750;SDS011;37579;51.074;17.004;2024-03-08T13:18:36;10.30;;;6.78;;
39750;SDS011;37579;51.074;17.004;2024-03-08T13:21:02;8.95;;;6.85;;
39750;SDS011;37579;51.074;17.004;2024-03-08T13:23:32;9.82;;;6.70;;
39750;SDS011;37579;51.074;17.004;2024-03-08T13:25:58;10.30;;;7.40;;
39750;SDS011;37579;51.074;17.004;2024-03-08T13:28:24;8.32;;;6.53;;
39750;SDS011;37579;51.074;17.004;2024-03-08T13:30:55;9.68;;;6.30;;
39750;SDS011;37579;51.074;17.004;2024-03-08T13:33:23;10.30;;;7.90;;
39750;SDS011;37579;51.074;17.004;2024-03-08T13:35:49;8.90;;;7.03;;
39750;SDS011;37579;51.074;17.004;2024-03-08T13:38:16;9.40;;;6.40;;
39750;SDS011;37579;51.074;17.004;2024-03-08T13:40:45;9.55;;;6.82;;
39750;SDS011;37579;51.074;17.004;2024-03-08T13:43:12;11.55;;;7.47;;
39750;SDS011;37579;51.074;17.004;2024-03-08T13:45:38;9.20;;;6.03;;
39750;SDS011;37579;51.074;17.004;2024-03-08T13:48:07;6.93;;;5.82;;
39750;SDS011;37579;51.074;17.004;2024-03-08T13:50:37;7.65;;;6.07;;
39750;SDS011;37579;51.074;17.004;2024-03-08T13:53:03;8.57;;;6.40;;
39750;SDS011;37579;51.074;17.004;2024-03-08T13:55:29;8.43;;;6.65;;
39750;SDS011;37579;51.074;17.004;2024-03-08T13:57:56;8.70;;;6.10;;
39750;SDS011;37579;51.074;17.004;2024-03-08T14:00:25;9.05;;;6.40;;
39750;SDS011;37579;51.074;17.004;2024-03-08T14:02:58;9.00;;;6.18;;
39750;SDS011;37579;51.074;17.004;2024-03-08T14:05:24;8.00;;;6.15;;
39750;SDS011;37579;51.074;17.004;2024-03-08T14:07:49;7.63;;;5.65;;
39750;SDS011;37579;51.074;17.004;2024-03-08T14:10:15;8.25;;;5.40;;
39750;SDS011;37579;51.074;17.004;2024-03-08T14:12:44;8.38;;;5.65;;
39750;SDS011;37579;51.074;17.004;2024-03-08T14:15:13;7.53;;;5.63;;
39750;SDS011;37579;51.074;17.004;2024-03-08T14:17:39;7.60;;;5.90;;
39750;SDS011;37579;51.074;17.004;2024-03-08T14:20:05;8.68;;;6.13;;
39750;SDS011;37579;51.074;17.004;2024-03-08T14:22:31;9.30;;;6.57;;
39750;SDS011;37579;51.074;17.004;2024-03-08T14:24:57;6.32;;;5.53;;
39750;SDS011;37579;51.074;17.004;2024-03-08T14:27:23;7.03;;;5.65;;
39750;SDS011;37579;51.074;17.004;2024-03-08T14:29:48;7.10;;;5.82;;
39750;SDS011;37579;51.074;17.004;2024-03-08T14:32:14;8.85;;;5.80;;
39750;SDS011;37579;51.074;17.004;2024-03-08T14:34:40;8.57;;;5.78;;
39750;SDS011;37579;51.074;17.004;2024-03-08T14:37:06;8.88;;;5.85;;
39750;SDS011;37579;51.074;17.004;2024-03-08T14:39:36;10.13;;;6.22;;
39750;SDS011;37579;51.074;17.004;2024-03-08T14:42:02;7.93;;;5.93;;
39750;SDS011;37579;51.074;17.004;2024-03-08T14:44:28;9.00;;;5.90;;